Lampedusa Airport LICD

Flugplatz Daten

Name: Lampedusa Airport

Ident: LICD

Lat: 35,4978981

Long: 12,61810017

Platzhöhe: 70 ft

IataCode: LMP

City: Lampedusa

Metar

2022/08/13 18:20
LICD 131820Z AUTO 22010KT 9999 NCD 29/23 Q1011

Taf

2022/08/13 18:26
TAF LICD 131700Z 1318/1418 22010KT CAVOK
BECMG 1322/1324 VRB05KT
Gewünschte Webcam nicht vorhanden? Dann fügen Sie eine hinzu. Sie wird dann so schnell wie möglich freigeschaltet
Url: Title: